Time;durP1;ratioP1;P1;durP2;ratioP2;P2;SDS_P1;SDS_P2;PMS_P1;PMS_P2;Temp;Humidity;BMP_temperature;BMP_pressure;BME280_temperature;BME280_humidity;BME280_pressure;Samples;Min_cycle;Max_cycle;Signal;HPM_P1;HPM_P2
2022/01/16 00:00:47;;;;;;;;;;;2.40;99.90;;;;;;5102072;27;19924;-51
2022/01/16 00:04:13;;;;;;;;;;;2.40;99.90;;;;;;5061995;28;20347;-51
2022/01/16 00:06:08;;;;;;;;;;;2.40;99.90;;;;;;5063757;28;19927;-51
2022/01/16 00:08:34;;;;;;;;;;;2.40;99.90;;;;;;5067818;28;19916;-51
2022/01/16 00:11:00;;;;;;;;;;;2.40;99.90;;;;;;5084423;28;20373;-52
2022/01/16 00:13:25;;;;;;;;;;;2.40;99.90;;;;;;5071569;28;20445;-48
2022/01/16 00:15:51;;;;;;;;;;;2.40;99.90;;;;;;5069501;28;19924;-48
2022/01/16 00:18:23;;;;;;;;;;;2.40;99.90;;;;;;5099130;27;19916;-46
2022/01/16 00:20:49;;;;;;;;;;;2.40;99.90;;;;;;5098552;27;19921;-49
2022/01/16 00:23:23;;;;;;;;;;;2.40;99.90;;;;;;5063545;28;19982;-47
2022/01/16 00:25:52;;;;;;;;;;;2.40;99.90;;;;;;5069333;28;19928;-47
2022/01/16 00:28:19;;;;;;;;;;;2.30;99.90;;;;;;5057907;28;20008;-47
2022/01/16 00:30:45;;;;;;;;;;;2.30;99.90;;;;;;5076131;28;20415;-46
2022/01/16 00:33:10;;;;;;;;;;;2.20;99.90;;;;;;5084418;28;19916;-47
2022/01/16 00:35:40;;;;;;;;;;;2.20;99.90;;;;;;5042874;28;19916;-48
2022/01/16 00:38:07;;;;;;;;;;;2.20;99.90;;;;;;5069763;28;19923;-47
2022/01/16 00:40:33;;;;;;;;;;;2.10;99.90;;;;;;5056535;28;19921;-49
2022/01/16 00:42:59;;;;;;;;;;;2.10;99.90;;;;;;5038035;28;19981;-47
2022/01/16 00:45:25;;;;;;;;;;;2.10;99.90;;;;;;5046151;28;20374;-50
2022/01/16 00:47:51;;;;;;;;;;;2.10;99.90;;;;;;5055262;28;20065;-48
2022/01/16 00:50:17;;;;;;;;;;;2.10;99.90;;;;;;5071496;28;19955;-48
2022/01/16 00:52:43;;;;;;;;;;;2.00;99.90;;;;;;5071207;28;19931;-49
2022/01/16 00:55:09;;;;;;;;;;;2.00;99.90;;;;;;5069364;28;19916;-49
2022/01/16 00:57:35;;;;;;;;;;;1.90;99.90;;;;;;5063138;28;19920;-48
2022/01/16 01:00:01;;;;;;;;;;;2.00;99.90;;;;;;5055296;28;19917;-48
2022/01/16 01:02:27;;;;;;;;;;;1.90;99.90;;;;;;5087367;28;19924;-49
2022/01/16 01:04:53;;;;;;;;;;;1.90;99.90;;;;;;5054945;28;19927;-52
2022/01/16 01:07:19;;;;;;;;;;;1.90;99.90;;;;;;5090638;28;20126;-47
2022/01/16 01:09:45;;;;;;;;;;;1.90;99.90;;;;;;5070407;28;20290;-49
2022/01/16 01:12:19;;;;;;;;;;;1.90;99.90;;;;;;5089591;28;19927;-49
2022/01/16 01:15:05;;;;;;;;;;;1.90;99.90;;;;;;5067883;28;19943;-49
2022/01/16 01:17:35;;;;;;;;;;;1.90;99.90;;;;;;5051814;28;19916;-48
2022/01/16 01:20:01;;;;;;;;;;;1.90;99.90;;;;;;5056930;28;20267;-50
2022/01/16 01:22:26;;;;;;;;;;;1.90;99.90;;;;;;5071150;28;19923;-49
2022/01/16 01:24:58;;;;;;;;;;;1.80;99.90;;;;;;5069942;28;19920;-50
2022/01/16 01:27:29;;;;;;;;;;;1.90;99.90;;;;;;5047452;28;19921;-47
2022/01/16 01:30:09;;;;;;;;;;;1.90;99.90;;;;;;5067345;28;19916;-48
2022/01/16 01:32:37;;;;;;;;;;;1.80;99.90;;;;;;5066550;28;19936;-51
2022/01/16 01:35:10;;;;;;;;;;;1.80;99.90;;;;;;5067829;28;20044;-48
2022/01/16 01:37:49;;;;;;;;;;;1.80;99.90;;;;;;5067856;28;19917;-48
2022/01/16 01:40:26;;;;;;;;;;;1.80;99.90;;;;;;5067069;28;20659;-48
2022/01/16 01:51:09;;;;;;;;;;;1.80;99.90;;;;;;5049633;28;20280;-51
2022/01/16 01:53:36;;;;;;;;;;;1.80;99.90;;;;;;5066758;28;19920;-46
2022/01/16 01:56:03;;;;;;;;;;;1.90;99.90;;;;;;5069473;28;20448;-51
2022/01/16 01:58:28;;;;;;;;;;;1.90;99.90;;;;;;5046752;28;19916;-52
2022/01/16 02:00:54;;;;;;;;;;;1.90;99.90;;;;;;5052075;28;19927;-46
2022/01/16 02:06:16;;;;;;;;;;;1.90;99.90;;;;;;5029773;28;20003;-52
2022/01/16 02:08:43;;;;;;;;;;;1.90;99.90;;;;;;5082013;28;19995;-48
2022/01/16 02:11:13;;;;;;;;;;;1.90;99.90;;;;;;5079165;28;19916;-50
2022/01/16 02:13:49;;;;;;;;;;;1.90;99.90;;;;;;5065369;28;20286;-48
2022/01/16 02:30:54;;;;;;;;;;;1.80;99.90;;;;;;5044211;28;19927;-48
2022/01/16 02:33:24;;;;;;;;;;;1.80;99.90;;;;;;5066272;28;20357;-48
2022/01/16 02:35:53;;;;;;;;;;;1.80;99.90;;;;;;5067091;28;20390;-47
2022/01/16 02:38:20;;;;;;;;;;;1.80;99.90;;;;;;5066241;28;19994;-47
2022/01/16 02:40:56;;;;;;;;;;;1.80;99.90;;;;;;5066850;28;19932;-50
2022/01/16 02:43:29;;;;;;;;;;;1.80;99.90;;;;;;5065852;28;19924;-47
2022/01/16 02:48:48;;;;;;;;;;;1.80;99.90;;;;;;5071283;28;19927;-48
2022/01/16 02:51:18;;;;;;;;;;;1.80;99.90;;;;;;5052835;28;19920;-46
2022/01/16 02:53:44;;;;;;;;;;;1.80;99.90;;;;;;5070681;28;20310;-48
2022/01/16 02:56:11;;;;;;;;;;;1.70;99.90;;;;;;5051378;28;20066;-46
2022/01/16 02:58:36;;;;;;;;;;;1.70;99.90;;;;;;5071356;28;19920;-48
2022/01/16 03:01:02;;;;;;;;;;;1.70;99.90;;;;;;5037133;28;19925;-47
2022/01/16 03:03:28;;;;;;;;;;;1.70;99.90;;;;;;5048342;28;19991;-49
2022/01/16 03:05:54;;;;;;;;;;;1.60;99.90;;;;;;5066065;28;19963;-46
2022/01/16 03:08:20;;;;;;;;;;;1.60;99.90;;;;;;5051998;28;19955;-51
2022/01/16 03:13:32;;;;;;;;;;;1.60;99.90;;;;;;5072387;28;20337;-50
2022/01/16 03:15:59;;;;;;;;;;;1.60;99.90;;;;;;5067962;28;19939;-46
2022/01/16 03:23:54;;;;;;;;;;;1.70;99.90;;;;;;5065960;28;20393;-51
2022/01/16 03:26:20;;;;;;;;;;;1.70;99.90;;;;;;5071634;28;19920;-46
2022/01/16 03:28:45;;;;;;;;;;;1.70;99.90;;;;;;5085881;28;19973;-51
2022/01/16 03:31:11;;;;;;;;;;;1.70;99.90;;;;;;5058695;28;19916;-51
2022/01/16 03:33:37;;;;;;;;;;;1.70;99.90;;;;;;5042343;28;19938;-51
2022/01/16 03:36:06;;;;;;;;;;;1.70;99.90;;;;;;5091417;28;19916;-49
2022/01/16 03:38:31;;;;;;;;;;;1.70;99.90;;;;;;5090498;28;19958;-49
2022/01/16 03:40:58;;;;;;;;;;;1.70;99.90;;;;;;5089874;28;19956;-51
2022/01/16 03:43:23;;;;;;;;;;;1.70;99.90;;;;;;5054750;28;19931;-47
2022/01/16 03:45:49;;;;;;;;;;;1.70;99.90;;;;;;5088937;28;19924;-47
2022/01/16 03:48:16;;;;;;;;;;;1.70;99.90;;;;;;5081638;28;20396;-51
2022/01/16 03:50:42;;;;;;;;;;;1.70;99.90;;;;;;5075070;28;20058;-49
2022/01/16 03:53:07;;;;;;;;;;;1.70;99.90;;;;;;5089783;28;20007;-52
2022/01/16 03:55:34;;;;;;;;;;;1.70;99.90;;;;;;5093822;28;20225;-51
2022/01/16 03:58:06;;;;;;;;;;;1.80;99.90;;;;;;5088972;28;20007;-51
2022/01/16 04:00:32;;;;;;;;;;;1.80;99.90;;;;;;5106085;27;20659;-52
2022/01/16 04:02:58;;;;;;;;;;;1.80;99.90;;;;;;5072073;28;21110;-49
2022/01/16 04:05:23;;;;;;;;;;;1.80;99.90;;;;;;5072649;28;19927;-50
2022/01/16 04:07:50;;;;;;;;;;;1.80;99.90;;;;;;5077134;28;19924;-51
2022/01/16 04:10:15;;;;;;;;;;;1.80;99.90;;;;;;5072131;28;19916;-50
2022/01/16 04:12:44;;;;;;;;;;;1.80;99.90;;;;;;5058128;28;19996;-51
2022/01/16 04:17:38;;;;;;;;;;;1.80;99.90;;;;;;5088961;28;20342;-48
2022/01/16 04:20:04;;;;;;;;;;;1.80;99.90;;;;;;5088988;28;19927;-51
2022/01/16 04:22:39;;;;;;;;;;;1.90;99.90;;;;;;5105631;27;20010;-50
2022/01/16 04:25:12;;;;;;;;;;;1.90;99.90;;;;;;5107033;27;20014;-50
2022/01/16 04:27:37;;;;;;;;;;;1.90;99.90;;;;;;5045155;28;19924;-49
2022/01/16 04:30:04;;;;;;;;;;;1.90;99.90;;;;;;5061751;28;19931;-51
2022/01/16 04:32:30;;;;;;;;;;;1.90;99.90;;;;;;5047597;28;19920;-46
2022/01/16 04:35:14;;;;;;;;;;;1.90;99.90;;;;;;5086324;28;19922;-50
2022/01/16 04:37:40;;;;;;;;;;;2.00;99.90;;;;;;5072643;28;19943;-48
2022/01/16 04:40:07;;;;;;;;;;;2.00;99.90;;;;;;5037446;28;20500;-51
2022/01/16 04:45:17;;;;;;;;;;;2.00;99.90;;;;;;5062225;28;20015;-53
2022/01/16 04:47:43;;;;;;;;;;;2.00;99.90;;;;;;5073049;28;19916;-49
2022/01/16 04:50:12;;;;;;;;;;;2.00;99.90;;;;;;5046966;28;19917;-50
2022/01/16 04:52:39;;;;;;;;;;;2.10;99.90;;;;;;5069507;28;19917;-49
2022/01/16 04:55:06;;;;;;;;;;;2.10;99.90;;;;;;5051358;28;19920;-51
2022/01/16 04:57:32;;;;;;;;;;;2.20;99.90;;;;;;5083961;28;19985;-51
2022/01/16 04:59:58;;;;;;;;;;;2.10;99.90;;;;;;5055734;28;20310;-50
2022/01/16 05:02:23;;;;;;;;;;;2.20;99.90;;;;;;5069436;28;19929;-48
2022/01/16 05:04:49;;;;;;;;;;;2.20;99.90;;;;;;5065839;28;19977;-48
2022/01/16 05:07:15;;;;;;;;;;;2.20;99.90;;;;;;5070428;28;19971;-47
2022/01/16 05:09:40;;;;;;;;;;;2.20;99.90;;;;;;5068514;28;19977;-48
2022/01/16 05:12:12;;;;;;;;;;;2.20;99.90;;;;;;5058715;28;19920;-46
2022/01/16 05:17:37;;;;;;;;;;;2.20;99.90;;;;;;5079380;28;20581;-47
2022/01/16 05:20:03;;;;;;;;;;;2.30;99.90;;;;;;5069499;28;20387;-50
2022/01/16 05:25:20;;;;;;;;;;;2.30;99.90;;;;;;5063934;28;20035;-49
2022/01/16 05:27:46;;;;;;;;;;;2.30;99.90;;;;;;5080339;28;20007;-50
2022/01/16 05:30:12;;;;;;;;;;;2.30;99.90;;;;;;5066650;28;19966;-48
2022/01/16 05:32:38;;;;;;;;;;;2.30;99.90;;;;;;5050880;28;19923;-47
2022/01/16 05:35:04;;;;;;;;;;;2.40;99.90;;;;;;5049767;28;19916;-50
2022/01/16 05:37:54;;;;;;;;;;;2.40;99.90;;;;;;5065068;28;20262;-49
2022/01/16 05:40:20;;;;;;;;;;;2.40;99.90;;;;;;5049057;28;19927;-51
2022/01/16 05:42:46;;;;;;;;;;;2.40;99.90;;;;;;5085511;28;19916;-49
2022/01/16 05:45:11;;;;;;;;;;;2.40;99.90;;;;;;5064573;28;19929;-50
2022/01/16 05:47:37;;;;;;;;;;;2.40;99.90;;;;;;5067556;28;19916;-52
2022/01/16 05:50:04;;;;;;;;;;;2.40;99.90;;;;;;5066581;28;19916;-47
2022/01/16 05:52:30;;;;;;;;;;;2.50;99.90;;;;;;5066485;28;19943;-47
2022/01/16 05:54:55;;;;;;;;;;;2.50;99.90;;;;;;5049118;28;19920;-48
2022/01/16 05:57:21;;;;;;;;;;;2.50;99.90;;;;;;5082691;28;20519;-47
2022/01/16 05:59:47;;;;;;;;;;;2.50;99.90;;;;;;5064204;28;19924;-46
2022/01/16 06:02:13;;;;;;;;;;;2.50;99.90;;;;;;5035204;28;19930;-47
2022/01/16 06:04:39;;;;;;;;;;;2.50;99.90;;;;;;5033803;28;19928;-51
2022/01/16 06:07:06;;;;;;;;;;;2.60;99.90;;;;;;5063825;28;19924;-51
2022/01/16 06:09:32;;;;;;;;;;;2.60;99.90;;;;;;5049272;28;19917;-51
2022/01/16 06:11:57;;;;;;;;;;;2.60;99.90;;;;;;5052741;28;19916;-49
2022/01/16 06:14:24;;;;;;;;;;;2.60;99.90;;;;;;5049159;28;19923;-51
2022/01/16 06:16:59;;;;;;;;;;;2.60;99.90;;;;;;5085094;28;19963;-49
2022/01/16 06:19:24;;;;;;;;;;;2.60;99.90;;;;;;5066212;28;19970;-49
2022/01/16 06:21:50;;;;;;;;;;;2.70;99.90;;;;;;5055927;28;20451;-52
2022/01/16 06:24:16;;;;;;;;;;;2.70;99.90;;;;;;5034077;28;20396;-50
2022/01/16 06:26:42;;;;;;;;;;;2.70;99.90;;;;;;5068130;28;19931;-50
2022/01/16 06:29:09;;;;;;;;;;;2.70;99.90;;;;;;5063508;28;19999;-51
2022/01/16 06:31:35;;;;;;;;;;;2.70;99.90;;;;;;5050230;28;19924;-50
2022/01/16 06:34:03;;;;;;;;;;;2.70;99.90;;;;;;5065628;28;20366;-52
2022/01/16 06:36:29;;;;;;;;;;;2.80;99.90;;;;;;5068752;28;19920;-47
2022/01/16 06:38:56;;;;;;;;;;;2.70;99.90;;;;;;5049613;28;19943;-51
2022/01/16 06:41:22;;;;;;;;;;;2.80;99.90;;;;;;5066733;28;19959;-50
2022/01/16 06:43:48;;;;;;;;;;;2.80;99.90;;;;;;5069627;28;20441;-48
2022/01/16 06:46:23;;;;;;;;;;;2.90;99.90;;;;;;5047447;28;19951;-47
2022/01/16 06:48:55;;;;;;;;;;;2.90;99.90;;;;;;5082444;28;19916;-48
2022/01/16 06:51:21;;;;;;;;;;;2.90;99.90;;;;;;5032248;28;19920;-48
2022/01/16 06:53:47;;;;;;;;;;;2.90;99.90;;;;;;5050660;28;19916;-48
2022/01/16 06:56:14;;;;;;;;;;;3.00;99.90;;;;;;5047684;28;20370;-48
2022/01/16 06:58:39;;;;;;;;;;;3.00;99.90;;;;;;5045208;28;19920;-49
2022/01/16 07:01:05;;;;;;;;;;;3.00;99.90;;;;;;5028987;28;19932;-49
2022/01/16 07:03:31;;;;;;;;;;;3.00;99.90;;;;;;5063563;28;19917;-50
2022/01/16 07:05:57;;;;;;;;;;;3.00;99.90;;;;;;5062968;28;20286;-49
2022/01/16 07:08:26;;;;;;;;;;;3.00;99.90;;;;;;5066717;28;19962;-50
2022/01/16 07:10:59;;;;;;;;;;;3.10;99.90;;;;;;5071577;28;19921;-49
2022/01/16 07:13:26;;;;;;;;;;;3.10;99.90;;;;;;5048315;28;19967;-49
2022/01/16 07:15:52;;;;;;;;;;;3.10;99.90;;;;;;5019501;28;19986;-50
2022/01/16 07:18:24;;;;;;;;;;;3.10;99.90;;;;;;5045439;28;20354;-47
2022/01/16 07:20:49;;;;;;;;;;;3.20;99.90;;;;;;5063771;28;19916;-52
2022/01/16 07:23:17;;;;;;;;;;;3.20;99.90;;;;;;5062984;28;19920;-47
2022/01/16 07:25:44;;;;;;;;;;;3.30;99.90;;;;;;5067443;28;20319;-46
2022/01/16 07:28:10;;;;;;;;;;;3.30;99.90;;;;;;5066698;28;19924;-47
2022/01/16 07:30:38;;;;;;;;;;;3.30;99.90;;;;;;5032659;28;20381;-47
2022/01/16 07:33:03;;;;;;;;;;;3.30;99.90;;;;;;5035909;28;20389;-48
2022/01/16 07:35:29;;;;;;;;;;;3.40;99.90;;;;;;5033565;28;20012;-52
2022/01/16 07:37:55;;;;;;;;;;;3.40;99.90;;;;;;5032510;28;19924;-51
2022/01/16 07:40:21;;;;;;;;;;;3.40;99.90;;;;;;5047520;28;20458;-48
2022/01/16 07:42:47;;;;;;;;;;;3.40;99.90;;;;;;5048043;28;20358;-52
2022/01/16 07:45:13;;;;;;;;;;;3.40;99.90;;;;;;5069443;28;19935;-48
2022/01/16 07:47:39;;;;;;;;;;;3.50;99.90;;;;;;5068284;28;19962;-53
2022/01/16 07:50:09;;;;;;;;;;;3.50;99.90;;;;;;5066118;28;19923;-52
2022/01/16 07:52:35;;;;;;;;;;;3.50;99.90;;;;;;5053344;28;20666;-51
2022/01/16 07:55:00;;;;;;;;;;;3.60;99.90;;;;;;5053402;28;19920;-49
2022/01/16 07:57:26;;;;;;;;;;;3.60;99.90;;;;;;5068435;28;20419;-51
2022/01/16 07:59:52;;;;;;;;;;;3.60;99.90;;;;;;5053423;28;19924;-50
2022/01/16 08:02:18;;;;;;;;;;;3.60;99.90;;;;;;5050989;28;19927;-51
2022/01/16 08:04:47;;;;;;;;;;;3.60;99.90;;;;;;5034688;28;19921;-49
2022/01/16 08:07:12;;;;;;;;;;;3.60;99.90;;;;;;5052437;28;19924;-52
2022/01/16 08:09:38;;;;;;;;;;;3.70;99.90;;;;;;5066496;28;20346;-51
2022/01/16 08:12:05;;;;;;;;;;;3.70;99.90;;;;;;5052727;28;19943;-50
2022/01/16 08:14:30;;;;;;;;;;;3.70;99.90;;;;;;5068922;28;19924;-50
2022/01/16 08:16:56;;;;;;;;;;;3.60;99.90;;;;;;5061299;28;19934;-50
2022/01/16 08:19:23;;;;;;;;;;;3.60;99.90;;;;;;5047741;28;20213;-49
2022/01/16 08:21:49;;;;;;;;;;;3.70;99.90;;;;;;5048991;28;20177;-52
2022/01/16 08:24:28;;;;;;;;;;;3.70;99.90;;;;;;5044584;28;20628;-53
2022/01/16 08:27:00;;;;;;;;;;;3.70;99.90;;;;;;5032888;28;19917;-49
2022/01/16 08:29:27;;;;;;;;;;;3.80;99.90;;;;;;5067968;28;19935;-52
2022/01/16 08:31:52;;;;;;;;;;;3.80;99.90;;;;;;5058694;28;19924;-52
2022/01/16 08:34:18;;;;;;;;;;;3.90;99.90;;;;;;5105243;27;20027;-48
2022/01/16 08:36:53;;;;;;;;;;;3.90;99.90;;;;;;5072345;28;20107;-52
2022/01/16 08:39:19;;;;;;;;;;;3.90;99.90;;;;;;5073381;28;19916;-49
2022/01/16 08:41:44;;;;;;;;;;;4.00;99.90;;;;;;5085308;28;19927;-50
2022/01/16 08:44:10;;;;;;;;;;;4.10;99.90;;;;;;5075630;28;19920;-49
2022/01/16 08:46:36;;;;;;;;;;;4.10;99.90;;;;;;5071520;28;19993;-48
2022/01/16 08:49:02;;;;;;;;;;;4.20;99.90;;;;;;5074405;28;19919;-47
2022/01/16 08:51:27;;;;;;;;;;;4.20;99.90;;;;;;5084572;28;20123;-52
2022/01/16 08:53:54;;;;;;;;;;;4.20;99.90;;;;;;5071996;28;19916;-51
2022/01/16 08:56:20;;;;;;;;;;;4.30;99.90;;;;;;5076064;28;20348;-48
2022/01/16 08:58:46;;;;;;;;;;;4.30;99.90;;;;;;5104588;27;19989;-48
2022/01/16 09:01:12;;;;;;;;;;;4.40;99.90;;;;;;5071266;28;20024;-50
2022/01/16 09:03:38;;;;;;;;;;;4.40;99.90;;;;;;5085173;28;20018;-47
2022/01/16 09:06:04;;;;;;;;;;;4.40;99.90;;;;;;5104364;28;19924;-47
2022/01/16 09:08:30;;;;;;;;;;;4.40;99.90;;;;;;5082558;28;19952;-48
2022/01/16 09:10:56;;;;;;;;;;;4.50;99.90;;;;;;5088951;28;19922;-53
2022/01/16 09:13:22;;;;;;;;;;;4.50;99.90;;;;;;5084486;28;20580;-51
2022/01/16 09:15:49;;;;;;;;;;;4.60;99.90;;;;;;5069834;28;19916;-49
2022/01/16 09:18:15;;;;;;;;;;;4.60;99.90;;;;;;5087516;28;20038;-52
2022/01/16 09:20:41;;;;;;;;;;;4.60;99.90;;;;;;5076421;28;19995;-48
2022/01/16 09:23:08;;;;;;;;;;;4.70;99.90;;;;;;5083555;28;19920;-51
2022/01/16 09:25:34;;;;;;;;;;;4.70;99.90;;;;;;5068295;28;19920;-50
2022/01/16 09:28:00;;;;;;;;;;;4.80;99.90;;;;;;5101735;27;19920;-52
2022/01/16 09:30:26;;;;;;;;;;;4.80;99.90;;;;;;5064074;28;19920;-48
2022/01/16 09:32:52;;;;;;;;;;;4.90;99.90;;;;;;5048602;28;20366;-48
2022/01/16 09:35:25;;;;;;;;;;;4.90;99.90;;;;;;5051652;28;19970;-52
2022/01/16 09:37:51;;;;;;;;;;;5.00;99.90;;;;;;5044481;28;19928;-48
2022/01/16 09:40:19;;;;;;;;;;;5.00;99.90;;;;;;5065406;28;19920;-50
2022/01/16 09:42:46;;;;;;;;;;;5.10;99.90;;;;;;5077614;28;20539;-49
2022/01/16 09:45:13;;;;;;;;;;;5.10;99.90;;;;;;5030253;28;19925;-52
2022/01/16 09:47:39;;;;;;;;;;;5.10;99.90;;;;;;5048900;28;19924;-53
2022/01/16 09:50:06;;;;;;;;;;;5.20;99.90;;;;;;5045996;28;19921;-51
2022/01/16 09:52:39;;;;;;;;;;;5.20;99.90;;;;;;5046941;28;19920;-47
2022/01/16 09:55:05;;;;;;;;;;;5.10;99.90;;;;;;5061960;28;19982;-50
2022/01/16 09:57:31;;;;;;;;;;;5.30;99.90;;;;;;5047396;28;19920;-50
2022/01/16 09:59:57;;;;;;;;;;;5.30;99.90;;;;;;5061216;28;19916;-48
2022/01/16 10:02:23;;;;;;;;;;;5.30;99.90;;;;;;5064449;28;19917;-51
2022/01/16 10:04:49;;;;;;;;;;;5.30;99.90;;;;;;5065285;28;19943;-48
2022/01/16 10:07:16;;;;;;;;;;;5.30;99.90;;;;;;5065202;28;19920;-50
2022/01/16 10:09:45;;;;;;;;;;;5.30;99.90;;;;;;5065142;28;19920;-51
2022/01/16 10:12:17;;;;;;;;;;;5.30;99.90;;;;;;5044772;28;19923;-47
2022/01/16 10:14:47;;;;;;;;;;;5.40;99.90;;;;;;5032772;28;19971;-50
2022/01/16 10:17:17;;;;;;;;;;;5.40;99.90;;;;;;5065872;28;19923;-50
2022/01/16 10:19:43;;;;;;;;;;;5.40;99.90;;;;;;5066203;28;20053;-49
2022/01/16 10:22:10;;;;;;;;;;;5.40;99.90;;;;;;5043926;28;19955;-48
2022/01/16 10:24:42;;;;;;;;;;;5.40;99.90;;;;;;5067537;28;19981;-49
2022/01/16 10:27:08;;;;;;;;;;;5.40;99.90;;;;;;5048709;28;19924;-51
2022/01/16 10:29:37;;;;;;;;;;;5.50;99.90;;;;;;5046270;28;19925;-52
2022/01/16 10:32:14;;;;;;;;;;;5.50;99.90;;;;;;5049591;28;20006;-50
2022/01/16 10:34:41;;;;;;;;;;;5.50;99.90;;;;;;5047441;28;20275;-54
2022/01/16 10:37:19;;;;;;;;;;;5.60;99.90;;;;;;5048405;28;19920;-49
2022/01/16 10:39:57;;;;;;;;;;;5.60;99.90;;;;;;5047707;28;19924;-52
2022/01/16 10:42:23;;;;;;;;;;;5.70;99.90;;;;;;5066143;28;20374;-48
2022/01/16 10:45:18;;;;;;;;;;;5.70;99.90;;;;;;5028459;28;19924;-52
2022/01/16 10:47:51;;;;;;;;;;;5.70;99.90;;;;;;4957432;28;19976;-50
2022/01/16 10:50:18;;;;;;;;;;;5.80;99.90;;;;;;5063164;28;20399;-50
2022/01/16 10:52:53;;;;;;;;;;;5.80;99.90;;;;;;5029192;28;20401;-49
2022/01/16 10:55:51;;;;;;;;;;;5.80;99.90;;;;;;5050706;28;19978;-49
2022/01/16 10:58:19;;;;;;;;;;;5.80;99.90;;;;;;5046291;28;20401;-48
2022/01/16 11:00:59;;;;;;;;;;;5.90;99.90;;;;;;5044647;28;19926;-51
2022/01/16 11:03:26;;;;;;;;;;;5.90;99.90;;;;;;5047369;28;19920;-51
2022/01/16 11:05:52;;;;;;;;;;;6.00;99.90;;;;;;5033699;28;19987;-51
2022/01/16 11:08:19;;;;;;;;;;;6.00;99.90;;;;;;5051974;28;19956;-52
2022/01/16 11:10:46;;;;;;;;;;;6.00;99.90;;;;;;5053270;28;19923;-51
2022/01/16 11:13:13;;;;;;;;;;;6.10;99.90;;;;;;5068260;28;19927;-50
2022/01/16 11:15:43;;;;;;;;;;;6.10;99.90;;;;;;5036518;28;19978;-48
2022/01/16 11:18:09;;;;;;;;;;;6.10;99.90;;;;;;5070006;28;19921;-51
2022/01/16 11:20:37;;;;;;;;;;;6.10;99.90;;;;;;5068007;28;19983;-50
2022/01/16 11:23:12;;;;;;;;;;;6.10;99.90;;;;;;5054290;28;19924;-50
2022/01/16 11:25:39;;;;;;;;;;;6.10;99.90;;;;;;5050113;28;19924;-51
2022/01/16 11:28:06;;;;;;;;;;;6.20;99.90;;;;;;5071664;28;19923;-49
2022/01/16 11:30:33;;;;;;;;;;;6.20;99.90;;;;;;5048409;28;20015;-51
2022/01/16 11:32:59;;;;;;;;;;;6.20;99.90;;;;;;5069214;28;20003;-50
2022/01/16 11:35:26;;;;;;;;;;;6.20;99.90;;;;;;5052144;28;20356;-48
2022/01/16 11:37:52;;;;;;;;;;;6.20;99.90;;;;;;5069389;28;19999;-51
2022/01/16 11:40:28;;;;;;;;;;;6.30;99.90;;;;;;5069736;28;19924;-50
2022/01/16 11:43:14;;;;;;;;;;;6.30;99.90;;;;;;5069044;28;19959;-50
2022/01/16 11:45:51;;;;;;;;;;;6.30;99.90;;;;;;5048650;28;19924;-50
2022/01/16 11:48:17;;;;;;;;;;;6.30;99.90;;;;;;5070542;28;19923;-49
2022/01/16 11:50:43;;;;;;;;;;;6.30;99.90;;;;;;5064404;28;19946;-47
2022/01/16 11:53:09;;;;;;;;;;;6.30;99.90;;;;;;5068566;28;20255;-49
2022/01/16 11:55:35;;;;;;;;;;;6.30;99.90;;;;;;5032831;28;19995;-51
2022/01/16 11:58:04;;;;;;;;;;;6.30;99.90;;;;;;5066836;28;19924;-52
2022/01/16 12:00:45;;;;;;;;;;;6.30;99.90;;;;;;5047976;28;19958;-52
2022/01/16 12:03:30;;;;;;;;;;;6.40;99.90;;;;;;5034387;28;19917;-49
2022/01/16 12:06:15;;;;;;;;;;;6.40;99.90;;;;;;5051604;28;19925;-51
2022/01/16 12:08:45;;;;;;;;;;;6.40;99.90;;;;;;5067542;28;19931;-52
2022/01/16 12:11:31;;;;;;;;;;;6.40;99.90;;;;;;5066931;28;19999;-51
2022/01/16 12:14:21;;;;;;;;;;;6.40;99.90;;;;;;5069316;28;19986;-47
2022/01/16 12:16:47;;;;;;;;;;;6.40;99.90;;;;;;5037215;28;19920;-51
2022/01/16 12:19:34;;;;;;;;;;;6.40;99.90;;;;;;5069402;28;19926;-50
2022/01/16 12:22:00;;;;;;;;;;;6.40;99.90;;;;;;5068554;28;19916;-51
2022/01/16 12:24:36;;;;;;;;;;;6.50;99.90;;;;;;5050793;28;19963;-51
2022/01/16 12:27:24;;;;;;;;;;;6.50;99.90;;;;;;5051794;28;19916;-49
2022/01/16 12:30:08;;;;;;;;;;;6.50;99.90;;;;;;5053575;28;19928;-49
2022/01/16 12:32:49;;;;;;;;;;;6.40;99.90;;;;;;5071152;28;20000;-51
2022/01/16 12:35:15;;;;;;;;;;;6.50;99.90;;;;;;5078004;28;19931;-49
2022/01/16 12:37:43;;;;;;;;;;;6.40;99.90;;;;;;5038693;28;19916;-48
2022/01/16 12:40:09;;;;;;;;;;;6.50;99.90;;;;;;5055338;28;19931;-48
2022/01/16 12:42:35;;;;;;;;;;;6.50;99.90;;;;;;5052563;28;19920;-52
2022/01/16 12:45:01;;;;;;;;;;;6.50;99.90;;;;;;5067168;28;19970;-50
2022/01/16 12:47:26;;;;;;;;;;;6.50;99.90;;;;;;5069765;28;19924;-50
2022/01/16 12:49:53;;;;;;;;;;;6.50;99.90;;;;;;5053268;28;20561;-53
2022/01/16 12:52:19;;;;;;;;;;;6.50;99.90;;;;;;5054958;28;19989;-52
2022/01/16 12:54:50;;;;;;;;;;;6.50;99.90;;;;;;5040460;28;20374;-49
2022/01/16 12:57:25;;;;;;;;;;;6.50;99.90;;;;;;5052865;28;20385;-47
2022/01/16 12:59:51;;;;;;;;;;;6.50;99.90;;;;;;5048682;28;19924;-49
2022/01/16 13:02:20;;;;;;;;;;;6.50;99.90;;;;;;5085136;28;20445;-50
2022/01/16 13:04:46;;;;;;;;;;;6.50;99.90;;;;;;5066966;28;20003;-52
2022/01/16 13:07:27;;;;;;;;;;;6.50;99.90;;;;;;5067723;28;19923;-48
2022/01/16 13:09:53;;;;;;;;;;;6.40;99.90;;;;;;5039041;28;19920;-50
2022/01/16 13:12:19;;;;;;;;;;;6.50;99.90;;;;;;5051739;28;19920;-50
2022/01/16 13:14:46;;;;;;;;;;;6.40;99.90;;;;;;5036217;28;20381;-48
2022/01/16 13:17:13;;;;;;;;;;;6.40;99.90;;;;;;5067741;28;19920;-51
2022/01/16 13:22:13;;;;;;;;;;;6.40;99.90;;;;;;5070976;28;19923;-49
2022/01/16 13:24:49;;;;;;;;;;;6.40;99.90;;;;;;5069592;28;19924;-48
2022/01/16 13:27:15;;;;;;;;;;;6.40;99.90;;;;;;5065028;28;19924;-50
2022/01/16 13:29:42;;;;;;;;;;;6.40;99.90;;;;;;5059192;28;19927;-48
2022/01/16 13:32:09;;;;;;;;;;;6.40;99.90;;;;;;5067940;28;19920;-53
2022/01/16 13:35:04;;;;;;;;;;;6.40;99.90;;;;;;5034286;28;19920;-50
2022/01/16 13:37:31;;;;;;;;;;;6.40;99.90;;;;;;5064516;28;19920;-49
2022/01/16 13:39:57;;;;;;;;;;;6.40;99.90;;;;;;5050966;28;19959;-51
2022/01/16 13:45:25;;;;;;;;;;;6.40;99.90;;;;;;5065338;28;19932;-53
2022/01/16 13:48:19;;;;;;;;;;;6.40;99.90;;;;;;5050617;28;19921;-52
2022/01/16 13:50:48;;;;;;;;;;;6.50;99.90;;;;;;5066125;28;19924;-51
2022/01/16 13:53:16;;;;;;;;;;;6.50;99.90;;;;;;5063152;28;19961;-50
2022/01/16 13:55:47;;;;;;;;;;;6.50;99.90;;;;;;5047655;28;20173;-48
2022/01/16 13:58:14;;;;;;;;;;;6.50;99.90;;;;;;5062794;28;19920;-48
2022/01/16 14:00:58;;;;;;;;;;;6.50;99.90;;;;;;5048171;28;19922;-48
2022/01/16 14:03:25;;;;;;;;;;;6.50;99.90;;;;;;5051581;28;19924;-50
2022/01/16 14:05:52;;;;;;;;;;;6.50;99.90;;;;;;5049869;28;19921;-49
2022/01/16 14:08:18;;;;;;;;;;;6.60;99.90;;;;;;5048692;28;19924;-51
2022/01/16 14:10:43;;;;;;;;;;;6.60;99.90;;;;;;5065502;28;20282;-53
2022/01/16 14:13:10;;;;;;;;;;;6.60;99.90;;;;;;5069503;28;20270;-49
2022/01/16 14:15:40;;;;;;;;;;;6.60;99.90;;;;;;5049236;28;20294;-49
2022/01/16 14:18:28;;;;;;;;;;;6.60;99.90;;;;;;5049235;28;19921;-48
2022/01/16 14:21:58;;;;;;;;;;;6.60;99.90;;;;;;5046388;28;20367;-48
2022/01/16 14:23:40;;;;;;;;;;;6.60;99.90;;;;;;5066683;28;21153;-49
2022/01/16 14:26:05;;;;;;;;;;;6.60;99.90;;;;;;5048924;28;19924;-52
2022/01/16 14:28:37;;;;;;;;;;;6.60;99.90;;;;;;5064126;28;19920;-47
2022/01/16 14:31:28;;;;;;;;;;;6.60;99.90;;;;;;5054174;28;19928;-51
2022/01/16 14:33:54;;;;;;;;;;;6.60;99.90;;;;;;5078966;28;19924;-51
2022/01/16 14:36:19;;;;;;;;;;;6.60;99.90;;;;;;5067556;28;19924;-52
2022/01/16 14:38:45;;;;;;;;;;;6.50;99.90;;;;;;5067883;28;19920;-49
2022/01/16 14:41:12;;;;;;;;;;;6.50;99.90;;;;;;5073386;28;20358;-49
2022/01/16 14:43:57;;;;;;;;;;;6.50;99.90;;;;;;5074800;28;19916;-52
2022/01/16 14:46:24;;;;;;;;;;;6.50;99.90;;;;;;5073564;28;19924;-49
2022/01/16 14:48:50;;;;;;;;;;;6.50;99.90;;;;;;5067747;28;19923;-50
2022/01/16 14:51:17;;;;;;;;;;;6.50;99.90;;;;;;5072095;28;20011;-51
2022/01/16 14:53:43;;;;;;;;;;;6.50;99.90;;;;;;5062167;28;19920;-51
2022/01/16 14:56:10;;;;;;;;;;;6.50;99.90;;;;;;5070796;28;20405;-50
2022/01/16 14:58:36;;;;;;;;;;;6.50;99.90;;;;;;5076633;28;19922;-47
2022/01/16 15:01:02;;;;;;;;;;;6.50;99.90;;;;;;5056855;28;19920;-50
2022/01/16 15:03:28;;;;;;;;;;;6.50;99.90;;;;;;5078214;28;20471;-51
2022/01/16 15:05:53;;;;;;;;;;;6.50;99.90;;;;;;5084947;28;20385;-51
2022/01/16 15:08:19;;;;;;;;;;;6.40;99.90;;;;;;5067882;28;20007;-47
2022/01/16 15:10:45;;;;;;;;;;;6.40;99.90;;;;;;5062502;28;19967;-47
2022/01/16 15:13:10;;;;;;;;;;;6.40;99.90;;;;;;5071501;28;20392;-49
2022/01/16 15:15:36;;;;;;;;;;;6.40;99.90;;;;;;5074438;28;19952;-51
2022/01/16 15:18:02;;;;;;;;;;;6.30;99.90;;;;;;5072322;28;19920;-52
2022/01/16 15:20:29;;;;;;;;;;;6.40;99.90;;;;;;5070451;28;19920;-51
2022/01/16 15:22:57;;;;;;;;;;;6.40;99.90;;;;;;5075536;28;20049;-48
2022/01/16 15:25:26;;;;;;;;;;;6.40;99.90;;;;;;5072016;28;20023;-51
2022/01/16 15:27:52;;;;;;;;;;;6.40;99.90;;;;;;5073580;28;19920;-49
2022/01/16 15:30:19;;;;;;;;;;;6.40;99.90;;;;;;5069989;28;19931;-49
2022/01/16 15:32:45;;;;;;;;;;;6.30;99.90;;;;;;5085576;28;20003;-50